Marcell, MN (56657)

8:36 AM CDT on July 03, 2015 (GMT -0500)
Bigfork Municipal | | Change Station
CLOSE
Current Station
Airport
Location: Bigfork,
Elevation: 1348 ft
Nearby Weather Stations

Elev 1348 ft 47.78 °N, 93.65 °W | Updated 3 minutes ago

Overcast
Overcast
66 °F
Feels Like 66 °F
N
0
Wind Variable Wind from North

Today
High -- | Low -- °F
--% Chance of Precip.
Yesterday
High -- | Low -- °F
Precip. -- in
5:21 AM 9:15 PM
Full, 97% visible
Pressure 29.92 in
Visibility 5.0 miles
Clouds Overcast 700 ft
Dew Point 61 °F
Humidity 83%
Rainfall 0.00 in
Snow Depth Not available.
UV 1 out of 12
Pollen 4.90 out of 12
Air Quality Not available.
Flu Activity Not available.
METAR KFOZ 031333Z AUTO 00000KT 5SM HZ OVC007 19/16 A2992 RMK AO2 LTG DSNT S

More Conditions Fewer Conditions

Pressure 29.92 in
Visibility 5.0 miles
Clouds Overcast 700 ft
Dew Point 61 °F
Humidity 83%
Rainfall 0.00 in
Snow Depth Not available.
UV 1 out of 12
Pollen 4.90 out of 12
Air Quality Not available.
Flu Activity Not available.
METAR KFOZ 031333Z AUTO 00000KT 5SM HZ OVC007 19/16 A2992 RMK AO2 LTG DSNT S

More Conditions Fewer Conditions

10-Day Weather Forecast

×

Almanac

Astronomy

Jul. 03, 2015 Rise Set
Actual Time
Civil Twilight
Nautical Twilight
Astronomical Twilight
Moon
Length of Visible Light
Length of Day
Tomorrow will be .
, % of the Moon is Illuminated

Today's Extremes

State Highs State Lows

Community

WunderPhotos

Upload Photos

1,834,670 photos uploaded!

WunderBlogs® & News

Nearby

Air Quality

  Air Quality AQ Index Pollutant
Not available.

Snow Depth

Station Depth Elevation

Earthquake Activity

City Distance Mag. Time & Date
Minimum magnitude displayed is 2.5.

Coastal Water Temperatures

Place Temperature

Stations

Nearby Weather Stations

Station Location Temp. Windchill Dew Point Humidity Wind Precip. Elev Updated Type